Terminal Aerodrome Forecast
Issued by NWS Portland, OR

Home | Current Version | Previous Version | Text Only | Print | Product List | Glossary On
Versions: 1 2 3 4 5 6 7 8 9 10 11 12 13 14 15 16 17 18 19 20 21 22 23 24 25 26 27 28 29 30 31 32 33 34 35 36 37 38
000
FTUS46 KPQR 290530
TAFEUG
TAF
KEUG 290530Z 2906/3006 19006KT P6SM -SHRA SCT025 BKN045 BKN070
     FM291300 21006KT P6SM -SHRA BKN025 OVC040
     FM291900 01008KT P6SM VCSH SCT025 BKN045
     FM292200 02013G21KT P6SM SCT045
     FM300400 03007KT P6SM SKC=

USA.gov is the U.S. government's official web portal to all federal, state and local government web resources and services.